createdAt,value
2022-10-08T00:01:26.354Z,100794.09
2022-10-08T00:03:56.689Z,100799.28
2022-10-08T00:06:26.337Z,100799.53
2022-10-08T00:08:57.330Z,100795.22
2022-10-08T00:11:28.471Z,100795.22
2022-10-08T00:13:56.736Z,100797.06
2022-10-08T00:16:27.125Z,100793.41
2022-10-08T00:18:57.129Z,100794.41
2022-10-08T00:21:30.897Z,100791.47
2022-10-08T00:24:02.333Z,100786.72
2022-10-08T00:26:32.636Z,100792.16
2022-10-08T00:29:03.059Z,100782.53
2022-10-08T00:31:33.381Z,100789.50
2022-10-08T00:34:03.222Z,100787.56
2022-10-08T00:36:32.509Z,100789.25
2022-10-08T00:39:04.033Z,100792.72
2022-10-08T00:41:34.714Z,100787.28
2022-10-08T00:44:04.091Z,100788.97
2022-10-08T00:46:38.023Z,100781.00
2022-10-08T00:49:15.113Z,100780.31
2022-10-08T00:51:45.114Z,100784.75
2022-10-08T00:54:14.815Z,100779.63
2022-10-08T00:56:43.284Z,100776.13
2022-10-08T00:59:13.918Z,100779.75
2022-10-08T01:01:43.433Z,100780.59
2022-10-08T01:04:13.860Z,100780.59
2022-10-08T01:06:50.027Z,100783.25
2022-10-08T01:09:24.679Z,100783.94
2022-10-08T01:12:03.804Z,100782.97
2022-10-08T01:14:42.647Z,100779.22
2022-10-08T01:17:19.466Z,100778.34
2022-10-08T01:20:18.315Z,100776.56
2022-10-08T01:23:06.361Z,100769.41
2022-10-08T01:25:48.688Z,100776.13
2022-10-08T01:28:24.071Z,100775.16
2022-10-08T01:30:58.971Z,100776.00
2022-10-08T01:33:33.308Z,100765.97
2022-10-08T01:36:05.199Z,100763.00
2022-10-08T01:38:41.012Z,100773.34
2022-10-08T01:41:11.389Z,100761.78
2022-10-08T01:43:44.967Z,100765.97
2022-10-08T01:46:16.970Z,100755.19
2022-10-08T01:48:45.669Z,100762.91
2022-10-08T01:51:18.958Z,100771.66
2022-10-08T01:53:49.936Z,100764.84
2022-10-08T01:56:20.952Z,100768.06
2022-10-08T01:58:54.405Z,100762.03
2022-10-08T02:01:28.715Z,100771.66
2022-10-08T02:04:25.498Z,100770.00
2022-10-08T02:06:56.642Z,100773.38
2022-10-08T02:09:26.609Z,100767.63
2022-10-08T02:11:55.058Z,100772.66
2022-10-08T02:14:27.416Z,100773.22
2022-10-08T02:17:03.140Z,100768.19
2022-10-08T02:19:43.237Z,100766.66
2022-10-08T02:22:16.072Z,100771.97
2022-10-08T02:24:48.062Z,100768.47
2022-10-08T02:27:19.030Z,100763.16
2022-10-08T02:29:59.113Z,100768.31
2022-10-08T02:32:33.863Z,100777.25
2022-10-08T02:35:11.220Z,100771.41
2022-10-08T02:37:44.961Z,100767.19
2022-10-08T02:40:17.039Z,100766.50
2022-10-08T02:42:50.093Z,100766.78
2022-10-08T02:45:24.250Z,100767.06
2022-10-08T02:47:58.670Z,100765.09
2022-10-08T02:50:30.057Z,100768.72
2022-10-08T02:52:59.602Z,100769.72
2022-10-08T02:55:37.573Z,100761.06
2022-10-08T02:58:10.721Z,100774.31
2022-10-08T03:00:45.047Z,100780.84
2022-10-08T03:03:16.076Z,100773.28
2022-10-08T03:05:44.869Z,100777.00
2022-10-08T03:08:15.275Z,100780.09
2022-10-08T03:10:44.739Z,100780.81
2022-10-08T03:13:13.870Z,100769.22
2022-10-08T03:15:44.594Z,100768.66
2022-10-08T03:18:13.301Z,100767.25
2022-10-08T03:20:44.869Z,100762.78
2022-10-08T03:23:14.632Z,100762.34
2022-10-08T03:25:45.390Z,100768.75
2022-10-08T03:28:13.450Z,100765.66
2022-10-08T03:30:42.725Z,100775.69
2022-10-08T03:33:12.771Z,100777.78
2022-10-08T03:35:46.335Z,100784.56
2022-10-08T03:38:15.421Z,100784.56
2022-10-08T03:40:43.679Z,100787.50
2022-10-08T03:43:11.562Z,100792.91
2022-10-08T03:45:39.347Z,100797.53
2022-10-08T03:48:08.672Z,100795.84
2022-10-08T03:50:36.477Z,100801.28
2022-10-08T03:53:04.241Z,100796.25
2022-10-08T03:55:32.087Z,100798.16
2022-10-08T03:57:59.859Z,100799.41
2022-10-08T04:00:27.665Z,100796.06
2022-10-08T04:02:57.636Z,100792.00
2022-10-08T04:05:26.843Z,100793.38
2022-10-08T04:07:54.714Z,100795.16
2022-10-08T04:10:22.504Z,100790.97
2022-10-08T04:12:50.456Z,100798.34
2022-10-08T04:15:19.713Z,100799.47
2022-10-08T04:17:47.545Z,100806.81
2022-10-08T04:20:15.424Z,100811.38
2022-10-08T04:22:45.026Z,100812.63
2022-10-08T04:25:13.043Z,100811.47
2022-10-08T04:27:41.034Z,100813.97
2022-10-08T04:30:11.700Z,100814.25
2022-10-08T04:32:39.537Z,100823.66
2022-10-08T04:35:08.443Z,100832.97
2022-10-08T04:37:36.457Z,100832.50
2022-10-08T04:40:06.341Z,100832.00
2022-10-08T04:42:36.386Z,100835.03
2022-10-08T04:45:04.274Z,100833.47
2022-10-08T04:47:32.218Z,100836.13
2022-10-08T04:50:00.012Z,100841.66
2022-10-08T04:52:27.888Z,100842.44
2022-10-08T04:54:55.724Z,100845.47
2022-10-08T04:57:24.830Z,100844.72
2022-10-08T05:00:16.689Z,100847.84
2022-10-08T05:02:40.779Z,100856.16
2022-10-08T05:05:09.494Z,100862.91
2022-10-08T05:07:37.340Z,100859.94
2022-10-08T05:10:05.608Z,100863.06
2022-10-08T05:12:34.972Z,100858.97
2022-10-08T05:15:02.800Z,100864.63
2022-10-08T05:17:30.532Z,100871.00
2022-10-08T05:19:58.434Z,100868.13
2022-10-08T05:22:26.360Z,100859.88
2022-10-08T05:24:54.218Z,100859.28
2022-10-08T05:27:21.972Z,100858.78
2022-10-08T05:29:51.189Z,100871.03
2022-10-08T05:32:19.018Z,100869.97
2022-10-08T05:34:46.869Z,100866.84
2022-10-08T05:37:14.783Z,100871.53
2022-10-08T05:39:42.640Z,100874.28
2022-10-08T05:42:10.462Z,100872.25
2022-10-08T05:44:39.856Z,100879.09
2022-10-08T05:47:10.758Z,100884.84
2022-10-08T05:49:38.741Z,100885.91
2022-10-08T05:52:06.718Z,100878.94
2022-10-08T05:54:34.540Z,100880.53
2022-10-08T05:57:02.368Z,100886.50
2022-10-08T05:59:30.306Z,100888.06
2022-10-08T06:01:58.169Z,100891.31
2022-10-08T06:04:27.451Z,100893.75
2022-10-08T06:06:55.465Z,100898.06
2022-10-08T06:09:23.340Z,100897.81
2022-10-08T06:11:51.315Z,100904.75
2022-10-08T06:14:20.258Z,100905.38
2022-10-08T06:16:48.308Z,100903.47
2022-10-08T06:19:16.954Z,100904.88
2022-10-08T06:21:46.156Z,100909.94
2022-10-08T06:24:14.188Z,100915.22
2022-10-08T06:26:44.227Z,100913.31
2022-10-08T06:29:15.970Z,100915.22
2022-10-08T06:31:44.848Z,100906.94
2022-10-08T06:34:12.935Z,100915.94
2022-10-08T06:36:41.112Z,100913.28
2022-10-08T06:39:12.837Z,100925.41
2022-10-08T06:41:40.789Z,100921.59
2022-10-08T06:44:11.992Z,100928.06
2022-10-08T06:46:40.158Z,100924.81
2022-10-08T06:49:08.318Z,100920.38
2022-10-08T06:51:36.189Z,100921.59
2022-10-08T06:54:07.910Z,100920.63
2022-10-08T06:56:40.208Z,100923.97
2022-10-08T06:59:08.840Z,100927.47
2022-10-08T07:01:39.081Z,100926.13
2022-10-08T07:04:07.441Z,100935.03
2022-10-08T07:06:35.852Z,100937.41
2022-10-08T07:09:06.728Z,100935.97
2022-10-08T07:11:35.165Z,100937.75
2022-10-08T07:14:04.675Z,100946.06
2022-10-08T07:16:32.518Z,100952.41
2022-10-08T07:19:00.535Z,100954.03
2022-10-08T07:21:30.904Z,100948.50
2022-10-08T07:24:00.845Z,100960.75
2022-10-08T07:26:32.350Z,100959.41
2022-10-08T07:29:02.183Z,100961.50
2022-10-08T07:31:33.945Z,100959.28
2022-10-08T07:34:04.147Z,100962.16
2022-10-08T07:36:32.173Z,100969.50
2022-10-08T07:39:01.610Z,100961.25
2022-10-08T07:41:32.731Z,100963.50
2022-10-08T07:44:02.144Z,100972.09
2022-10-08T07:46:34.506Z,100967.31
2022-10-08T07:49:02.813Z,100963.03
2022-10-08T07:51:32.422Z,100965.44
2022-10-08T07:54:02.743Z,100965.19
2022-10-08T07:56:32.008Z,100980.94
2022-10-08T07:59:01.034Z,100980.75
2022-10-08T08:01:31.536Z,100980.25
2022-10-08T08:04:02.048Z,100983.28
2022-10-08T08:06:34.410Z,100984.84
2022-10-08T08:09:02.755Z,100982.50
2022-10-08T08:11:31.575Z,100982.50
2022-10-08T08:13:59.547Z,100989.16
2022-10-08T08:16:29.142Z,100999.75
2022-10-08T08:19:02.510Z,100994.06
2022-10-08T08:21:32.092Z,100995.00
2022-10-08T08:24:04.525Z,100988.72
2022-10-08T08:26:34.022Z,101003.25
2022-10-08T08:29:03.667Z,100991.44
2022-10-08T08:31:33.132Z,100988.78
2022-10-08T08:34:07.059Z,100993.28
2022-10-08T08:36:36.941Z,100992.28
2022-10-08T08:39:06.162Z,100997.41
2022-10-08T08:41:46.937Z,100993.41
2022-10-08T08:44:22.149Z,100996.69
2022-10-08T08:47:00.382Z,101002.56
2022-10-08T08:49:34.777Z,101005.50
2022-10-08T08:52:04.358Z,101012.81
2022-10-08T08:54:32.475Z,100999.91
2022-10-08T08:57:12.320Z,101001.88
2022-10-08T08:59:46.236Z,101008.38
2022-10-08T09:02:23.755Z,101014.81
2022-10-08T09:04:57.580Z,101013.81
2022-10-08T09:07:34.476Z,101012.72
2022-10-08T09:10:06.570Z,101009.34
2022-10-08T09:12:38.590Z,101012.56
2022-10-08T09:15:17.821Z,101016.31
2022-10-08T09:17:47.535Z,101023.75
2022-10-08T09:20:19.134Z,101026.78
2022-10-08T09:22:47.797Z,101017.81
2022-10-08T09:25:18.539Z,101022.44
2022-10-08T09:27:49.064Z,101030.22
2022-10-08T09:30:35.611Z,101035.88
2022-10-08T09:33:16.667Z,101041.53
2022-10-08T09:35:50.940Z,101044.63
2022-10-08T09:38:23.922Z,101039.53
2022-10-08T09:41:01.876Z,101039.81
2022-10-08T09:43:30.016Z,101045.69
2022-10-08T09:46:02.831Z,101040.59
2022-10-08T09:48:31.960Z,101046.50
2022-10-08T09:51:04.753Z,101050.41
2022-10-08T09:53:42.645Z,101056.28
2022-10-08T09:56:11.821Z,101055.56
2022-10-08T09:58:50.395Z,101068.63
2022-10-08T10:01:19.300Z,101064.00
2022-10-08T10:03:52.234Z,101067.56
2022-10-08T10:06:33.588Z,101065.88
2022-10-08T10:09:07.224Z,101068.75
2022-10-08T10:11:41.778Z,101075.25
2022-10-08T10:14:19.463Z,101074.63
2022-10-08T10:16:50.329Z,101070.97
2022-10-08T10:19:23.308Z,101068.44
2022-10-08T10:21:59.528Z,101074.19
2022-10-08T10:24:48.191Z,101090.03
2022-10-08T10:27:24.530Z,101076.75
2022-10-08T10:30:03.999Z,101076.78
2022-10-08T10:32:37.866Z,101081.16
2022-10-08T10:35:15.522Z,101081.75
2022-10-08T10:37:52.007Z,101078.88
2022-10-08T10:40:43.333Z,101079.41
2022-10-08T10:43:26.515Z,101088.28
2022-10-08T10:45:59.464Z,101084.25
2022-10-08T10:48:30.333Z,101087.13
2022-10-08T10:51:16.271Z,101081.59
2022-10-08T10:53:55.614Z,101094.38
2022-10-08T10:56:23.928Z,101087.13
2022-10-08T10:59:09.922Z,101075.91
2022-10-08T11:01:48.102Z,101087.06
2022-10-08T11:04:24.305Z,101084.63
2022-10-08T11:07:05.256Z,101095.28
2022-10-08T11:09:43.243Z,101095.06
2022-10-08T11:12:25.687Z,101094.69
2022-10-08T11:15:02.603Z,101089.19
2022-10-08T11:17:41.185Z,101100.19
2022-10-08T11:20:29.378Z,101091.19
2022-10-08T11:23:04.176Z,101097.25
2022-10-08T11:26:02.673Z,101094.84
2022-10-08T11:28:37.111Z,101101.00
2022-10-08T11:31:14.958Z,101093.84
2022-10-08T11:33:45.415Z,101099.75
2022-10-08T11:36:29.254Z,101090.03
2022-10-08T11:39:10.565Z,101099.00
2022-10-08T11:41:47.766Z,101109.00
2022-10-08T11:44:17.666Z,101113.63
2022-10-08T11:46:45.538Z,101107.56
2022-10-08T11:49:49.273Z,101112.91
2022-10-08T11:52:17.535Z,101111.41
2022-10-08T11:54:55.340Z,101104.38
2022-10-08T11:57:49.251Z,101101.44
2022-10-08T12:00:42.931Z,101097.56
2022-10-08T12:03:28.527Z,101100.16
2022-10-08T12:05:59.381Z,101114.50
2022-10-08T12:08:53.095Z,101107.31
2022-10-08T12:11:47.932Z,101111.94
2022-10-08T12:14:32.508Z,101109.84
2022-10-08T12:17:11.468Z,101100.91
2022-10-08T12:20:20.757Z,101110.88
2022-10-08T12:23:03.816Z,101108.16
2022-10-08T12:25:35.905Z,101110.13
2022-10-08T12:28:52.701Z,101107.44
2022-10-08T12:31:28.893Z,101106.84
2022-10-08T12:34:00.184Z,101103.28
2022-10-08T12:36:40.395Z,101099.56
2022-10-08T12:39:17.540Z,101106.81
2022-10-08T12:41:56.865Z,101102.16
2022-10-08T12:44:38.830Z,101103.53
2022-10-08T12:47:23.251Z,101106.72
2022-10-08T12:49:57.121Z,101105.19
2022-10-08T12:52:25.685Z,101103.81
2022-10-08T12:54:55.872Z,101099.78
2022-10-08T12:57:29.998Z,101103.66
2022-10-08T12:59:59.008Z,101095.59
2022-10-08T13:02:37.047Z,101100.53
2022-10-08T13:05:06.293Z,101091.38
2022-10-08T13:07:36.249Z,101096.66
2022-10-08T13:10:20.152Z,101101.06
2022-10-08T13:13:00.750Z,101089.41
2022-10-08T13:15:28.641Z,101102.75
2022-10-08T13:17:57.981Z,101098.34
2022-10-08T13:20:26.536Z,101095.28
2022-10-08T13:22:54.452Z,101097.94
2022-10-08T13:25:36.971Z,101100.69
2022-10-08T13:28:16.589Z,101097.13
2022-10-08T13:30:46.597Z,101095.88
2022-10-08T13:33:19.675Z,101100.38
2022-10-08T13:35:53.773Z,101102.50
2022-10-08T13:38:25.658Z,101104.34
2022-10-08T13:40:58.570Z,101097.75
2022-10-08T13:43:27.230Z,101094.19
2022-10-08T13:45:55.042Z,101099.25
2022-10-08T13:48:24.403Z,101091.13
2022-10-08T13:50:52.879Z,101097.22
2022-10-08T13:53:22.887Z,101099.75
2022-10-08T13:55:51.702Z,101089.75
2022-10-08T13:58:21.280Z,101095.66
2022-10-08T14:00:50.044Z,101094.81
2022-10-08T14:03:18.075Z,101100.03
2022-10-08T14:05:49.270Z,101097.38
2022-10-08T14:08:20.925Z,101098.38
2022-10-08T14:10:49.254Z,101103.06
2022-10-08T14:13:17.615Z,101099.09
2022-10-08T14:15:45.448Z,101102.28
2022-10-08T14:18:13.332Z,101095.19
2022-10-08T14:20:43.722Z,101088.72
2022-10-08T14:23:15.360Z,101086.53
2022-10-08T14:25:43.202Z,101094.56
2022-10-08T14:28:11.239Z,101094.25
2022-10-08T14:30:39.115Z,101095.41
2022-10-08T14:33:11.466Z,101095.75
2022-10-08T14:35:39.841Z,101091.53
2022-10-08T14:38:08.676Z,101099.25
2022-10-08T14:40:38.977Z,101092.38
2022-10-08T14:43:06.970Z,101093.03
2022-10-08T14:45:34.846Z,101094.53
2022-10-08T14:48:03.470Z,101094.03
2022-10-08T14:50:31.320Z,101096.34
2022-10-08T14:52:59.385Z,101088.69
2022-10-08T14:55:27.416Z,101092.66
2022-10-08T14:57:56.611Z,101094.00
2022-10-08T15:00:24.432Z,101090.25
2022-10-08T15:02:52.264Z,101095.09
2022-10-08T15:05:20.304Z,101101.03
2022-10-08T15:07:51.235Z,101088.75
2022-10-08T15:10:19.251Z,101089.09
2022-10-08T15:12:47.377Z,101087.81
2022-10-08T15:15:19.661Z,101088.91
2022-10-08T15:17:48.200Z,101087.56
2022-10-08T15:20:16.454Z,101089.59
2022-10-08T15:22:44.374Z,101084.38
2022-10-08T15:25:12.507Z,101085.72
2022-10-08T15:27:40.395Z,101092.41
2022-10-08T15:30:12.136Z,101090.25
2022-10-08T15:32:41.381Z,101091.09
2022-10-08T15:35:09.476Z,101091.72
2022-10-08T15:37:39.569Z,101100.97
2022-10-08T15:40:08.098Z,101095.72
2022-10-08T15:42:36.110Z,101089.38
2022-10-08T15:45:04.006Z,101095.03
2022-10-08T15:47:32.121Z,101108.53
2022-10-08T15:50:01.340Z,101104.03
2022-10-08T15:52:29.372Z,101109.00
2022-10-08T15:54:57.204Z,101111.69
2022-10-08T15:57:25.006Z,101116.97
2022-10-08T15:59:53.598Z,101118.59
2022-10-08T16:02:40.398Z,101117.19
2022-10-08T16:05:10.256Z,101121.56
2022-10-08T16:07:40.566Z,101120.94
2022-10-08T16:10:09.265Z,101131.34
2022-10-08T16:12:37.126Z,101135.63
2022-10-08T16:15:05.506Z,101138.94
2022-10-08T16:17:33.496Z,101131.63
2022-10-08T16:20:02.055Z,101144.78
2022-10-08T16:22:31.256Z,101139.28
2022-10-08T16:24:59.292Z,101150.53
2022-10-08T16:27:27.294Z,101144.00
2022-10-08T16:29:55.097Z,101158.09
2022-10-08T16:32:22.874Z,101150.97
2022-10-08T16:34:53.405Z,101163.63
2022-10-08T16:37:21.653Z,101162.13
2022-10-08T16:39:50.822Z,101172.22
2022-10-08T16:42:18.792Z,101169.28
2022-10-08T16:44:46.687Z,101178.22
2022-10-08T16:47:14.476Z,101182.44
2022-10-08T16:49:42.590Z,101182.97
2022-10-08T16:52:11.198Z,101178.22
2022-10-08T16:54:41.284Z,101183.78
2022-10-08T16:57:10.739Z,101198.91
2022-10-08T16:59:38.947Z,101202.41
2022-10-08T17:02:06.868Z,101203.09
2022-10-08T17:04:39.023Z,101217.50
2022-10-08T17:07:09.558Z,101215.56
2022-10-08T17:09:40.636Z,101210.63
2022-10-08T17:12:11.573Z,101222.53
2022-10-08T17:14:39.563Z,101225.63
2022-10-08T17:17:07.719Z,101230.38
2022-10-08T17:19:35.619Z,101231.16
2022-10-08T17:22:03.415Z,101243.47
2022-10-08T17:24:31.284Z,101241.75
2022-10-08T17:26:59.069Z,101255.22
2022-10-08T17:29:28.330Z,101262.56
2022-10-08T17:31:56.220Z,101266.50
2022-10-08T17:34:24.192Z,101278.41
2022-10-08T17:36:52.034Z,101276.44
2022-10-08T17:39:21.007Z,101288.06
2022-10-08T17:41:48.885Z,101283.25
2022-10-08T17:44:16.662Z,101287.28
2022-10-08T17:46:47.691Z,101288.75
2022-10-08T17:49:17.023Z,101295.91
2022-10-08T17:51:45.539Z,101298.97
2022-10-08T17:54:15.509Z,101296.09
2022-10-08T17:56:43.785Z,101306.66
2022-10-08T17:59:14.389Z,101309.34
2022-10-08T18:01:45.055Z,101310.81
2022-10-08T18:04:17.171Z,101323.72
2022-10-08T18:06:47.085Z,101315.66
2022-10-08T18:09:17.037Z,101331.91
2022-10-08T18:11:46.714Z,101326.81
2022-10-08T18:14:17.032Z,101329.13
2022-10-08T18:16:48.194Z,101329.59
2022-10-08T18:19:18.419Z,101334.41
2022-10-08T18:21:46.916Z,101346.56
2022-10-08T18:24:14.848Z,101339.19
2022-10-08T18:26:42.729Z,101343.16
2022-10-08T18:29:15.339Z,101341.81
2022-10-08T18:31:47.270Z,101344.81
2022-10-08T18:34:18.522Z,101347.81
2022-10-08T18:36:47.011Z,101348.88
2022-10-08T18:39:16.819Z,101350.81
2022-10-08T18:41:46.174Z,101356.22
2022-10-08T18:44:16.477Z,101361.50
2022-10-08T18:46:47.563Z,101367.88
2022-10-08T18:49:23.716Z,101368.00
2022-10-08T18:51:51.605Z,101370.84
2022-10-08T18:54:19.446Z,101364.75
2022-10-08T18:56:47.271Z,101372.78
2022-10-08T18:59:17.250Z,101383.63
2022-10-08T19:01:47.537Z,101384.53
2022-10-08T19:04:20.496Z,101388.34
2022-10-08T19:06:50.332Z,101387.75
2022-10-08T19:09:20.896Z,101393.59
2022-10-08T19:11:51.195Z,101391.19
2022-10-08T19:14:20.710Z,101396.19
2022-10-08T19:16:49.022Z,101393.75
2022-10-08T19:19:24.178Z,101392.50
2022-10-08T19:21:54.298Z,101404.38
2022-10-08T19:24:24.031Z,101410.00
2022-10-08T19:26:53.025Z,101416.06
2022-10-08T19:29:22.726Z,101412.19
2022-10-08T19:31:51.173Z,101413.78
2022-10-08T19:34:25.647Z,101427.75
2022-10-08T19:36:53.541Z,101424.69
2022-10-08T19:39:23.128Z,101430.41
2022-10-08T19:42:09.755Z,101430.94
2022-10-08T19:44:40.097Z,101431.69
2022-10-08T19:47:07.868Z,101432.19
2022-10-08T19:49:37.093Z,101439.81
2022-10-08T19:52:04.938Z,101448.69
2022-10-08T19:54:32.999Z,101450.91
2022-10-08T19:57:00.870Z,101455.59
2022-10-08T19:59:28.737Z,101453.38
2022-10-08T20:01:56.627Z,101464.66
2022-10-08T20:04:24.592Z,101462.34
2022-10-08T20:06:56.101Z,101465.19
2022-10-08T20:09:23.981Z,101474.38
2022-10-08T20:11:51.882Z,101478.88
2022-10-08T20:14:19.858Z,101483.75
2022-10-08T20:16:48.852Z,101474.31
2022-10-08T20:19:19.355Z,101469.56
2022-10-08T20:21:48.138Z,101473.44
2022-10-08T20:24:18.895Z,101476.50
2022-10-08T20:26:48.863Z,101483.63
2022-10-08T20:29:18.552Z,101477.84
2022-10-08T20:31:49.420Z,101473.59
2022-10-08T20:34:19.490Z,101478.31
2022-10-08T20:36:47.888Z,101491.81
2022-10-08T20:39:19.019Z,101489.56
2022-10-08T20:41:46.998Z,101488.72
2022-10-08T20:44:17.486Z,101490.72
2022-10-08T20:46:45.700Z,101491.28
2022-10-08T20:49:14.283Z,101495.81
2022-10-08T20:51:45.090Z,101497.88
2022-10-08T20:54:15.131Z,101499.03
2022-10-08T20:56:44.862Z,101498.47
2022-10-08T20:59:17.018Z,101502.97
2022-10-08T21:01:47.789Z,101503.28
2022-10-08T21:04:19.720Z,101508.91
2022-10-08T21:06:49.202Z,101506.56
2022-10-08T21:09:22.130Z,101510.53
2022-10-08T21:11:53.523Z,101503.16
2022-10-08T21:14:23.359Z,101511.06
2022-10-08T21:16:51.482Z,101515.13
2022-10-08T21:19:22.081Z,101512.78
2022-10-08T21:21:52.596Z,101517.19
2022-10-08T21:24:20.822Z,101522.53
2022-10-08T21:26:48.738Z,101520.91
2022-10-08T21:29:17.987Z,101520.22
2022-10-08T21:31:45.899Z,101517.03
2022-10-08T21:34:14.187Z,101516.84
2022-10-08T21:36:44.507Z,101523.41
2022-10-08T21:39:16.344Z,101529.91
2022-10-08T21:41:44.972Z,101523.13
2022-10-08T21:44:13.164Z,101525.00
2022-10-08T21:46:43.333Z,101526.88
2022-10-08T21:49:19.991Z,101529.78
2022-10-08T21:51:49.897Z,101521.97
2022-10-08T21:54:18.330Z,101534.38
2022-10-08T21:56:46.241Z,101531.16
2022-10-08T21:59:16.261Z,101527.88
2022-10-08T22:01:48.216Z,101529.81
2022-10-08T22:04:18.226Z,101530.84
2022-10-08T22:06:48.409Z,101532.06
2022-10-08T22:09:18.733Z,101544.63
2022-10-08T22:11:47.011Z,101536.81
2022-10-08T22:14:15.053Z,101544.88
2022-10-08T22:16:47.034Z,101544.69
2022-10-08T22:19:15.794Z,101549.22
2022-10-08T22:21:43.654Z,101532.94
2022-10-08T22:24:11.625Z,101542.00
2022-10-08T22:26:44.562Z,101542.13
2022-10-08T22:29:12.785Z,101544.56
2022-10-08T22:31:40.726Z,101538.28
2022-10-08T22:34:10.205Z,101526.22
2022-10-08T22:36:41.177Z,101536.19
2022-10-08T22:39:09.668Z,101538.22
2022-10-08T22:41:37.519Z,101538.47
2022-10-08T22:44:05.686Z,101535.31
2022-10-08T22:46:37.589Z,101529.31
2022-10-08T22:49:08.945Z,101528.38
2022-10-08T22:51:39.202Z,101528.63
2022-10-08T22:54:07.427Z,101526.25
2022-10-08T22:56:35.383Z,101531.25
2022-10-08T22:59:03.335Z,101520.94
2022-10-08T23:01:31.974Z,101518.72
2022-10-08T23:04:02.192Z,101532.88
2022-10-08T23:06:32.325Z,101539.75
2022-10-08T23:09:03.570Z,101531.03
2022-10-08T23:11:31.961Z,101524.16
2022-10-08T23:14:01.578Z,101526.03
2022-10-08T23:16:31.011Z,101521.25
2022-10-08T23:19:01.423Z,101538.81
2022-10-08T23:21:29.750Z,101533.56
2022-10-08T23:23:58.160Z,101532.63
2022-10-08T23:26:28.279Z,101528.38
2022-10-08T23:28:57.744Z,101529.66
2022-10-08T23:31:27.790Z,101534.97
2022-10-08T23:33:56.349Z,101529.28
2022-10-08T23:36:26.424Z,101534.56
2022-10-08T23:38:55.538Z,101536.41
2022-10-08T23:41:24.467Z,101539.06
2022-10-08T23:43:54.745Z,101537.19
2022-10-08T23:46:24.934Z,101539.88
2022-10-08T23:48:53.546Z,101536.75
2022-10-08T23:51:22.410Z,101541.31
2022-10-08T23:53:51.776Z,101537.16
2022-10-08T23:56:20.284Z,101536.25
2022-10-08T23:58:48.810Z,101534.63
